createdAt,value
2018-09-19T00:02:12.961Z,99.90
2018-09-19T00:04:42.749Z,99.90
2018-09-19T00:07:12.478Z,99.90
2018-09-19T00:09:42.109Z,99.90
2018-09-19T00:12:30.291Z,99.90
2018-09-19T00:14:59.868Z,99.90
2018-09-19T00:17:29.591Z,99.90
2018-09-19T00:19:59.310Z,99.90
2018-09-19T00:22:28.953Z,99.90
2018-09-19T00:24:58.662Z,99.90
2018-09-19T00:27:28.332Z,99.90
2018-09-19T00:29:58.005Z,99.90
2018-09-19T00:32:28.821Z,99.90
2018-09-19T00:34:58.582Z,99.90
2018-09-19T00:37:28.334Z,99.90
2018-09-19T00:39:58.061Z,99.90
2018-09-19T00:42:27.707Z,99.90
2018-09-19T00:44:57.419Z,99.90
2018-09-19T00:47:27.153Z,99.90
2018-09-19T00:49:56.988Z,99.90
2018-09-19T00:52:26.659Z,99.90
2018-09-19T00:54:56.300Z,99.90
2018-09-19T00:57:25.905Z,99.90
2018-09-19T00:59:55.958Z,99.90
2018-09-19T01:02:25.653Z,99.90
2018-09-19T01:04:55.326Z,99.90
2018-09-19T01:07:24.966Z,99.90
2018-09-19T01:09:54.604Z,99.90
2018-09-19T01:12:24.242Z,99.90
2018-09-19T01:14:53.967Z,99.90
2018-09-19T01:17:23.667Z,99.90
2018-09-19T01:19:53.338Z,99.90
2018-09-19T01:22:23.174Z,99.90
2018-09-19T01:24:52.822Z,99.90
2018-09-19T01:27:22.523Z,99.90
2018-09-19T01:29:52.180Z,99.90
2018-09-19T01:32:21.916Z,99.90
2018-09-19T01:34:51.673Z,99.90
2018-09-19T01:37:21.397Z,99.90
2018-09-19T01:39:51.099Z,99.90
2018-09-19T01:42:20.875Z,99.90
2018-09-19T01:44:50.687Z,99.90
2018-09-19T01:47:20.386Z,99.90
2018-09-19T01:49:50.174Z,99.90
2018-09-19T01:52:19.926Z,99.90
2018-09-19T01:54:49.642Z,99.90
2018-09-19T01:57:19.326Z,99.90
2018-09-19T01:59:49.052Z,99.90
2018-09-19T02:02:18.859Z,99.90
2018-09-19T02:04:48.521Z,99.90
2018-09-19T02:07:18.432Z,99.90
2018-09-19T02:09:48.223Z,99.90
2018-09-19T02:12:17.880Z,99.90
2018-09-19T02:14:47.554Z,99.90
2018-09-19T02:17:17.202Z,99.90
2018-09-19T02:19:46.864Z,99.90
2018-09-19T02:22:16.667Z,99.90
2018-09-19T02:24:46.343Z,99.90
2018-09-19T02:27:16.003Z,99.90
2018-09-19T02:29:45.727Z,99.90
2018-09-19T02:32:15.371Z,99.90
2018-09-19T02:34:45.059Z,99.90
2018-09-19T02:37:14.738Z,99.90
2018-09-19T02:39:44.439Z,99.90
2018-09-19T02:42:14.148Z,99.90
2018-09-19T02:44:43.921Z,99.90
2018-09-19T02:47:13.662Z,99.90
2018-09-19T02:49:43.320Z,99.90
2018-09-19T02:52:13.015Z,99.90
2018-09-19T02:54:42.667Z,99.90
2018-09-19T02:57:12.381Z,99.90
2018-09-19T02:59:42.170Z,99.90
2018-09-19T03:02:11.875Z,99.90
2018-09-19T03:07:11.479Z,99.90
2018-09-19T03:09:41.418Z,99.90
2018-09-19T03:12:11.159Z,99.90
2018-09-19T03:14:40.842Z,99.90
2018-09-19T03:17:10.651Z,99.90
2018-09-19T03:19:40.208Z,99.90
2018-09-19T03:22:09.891Z,99.90
2018-09-19T03:24:39.651Z,99.90
2018-09-19T03:27:09.449Z,99.90
2018-09-19T03:29:39.162Z,99.90
2018-09-19T03:32:08.943Z,99.90
2018-09-19T03:34:38.638Z,99.90
2018-09-19T03:37:08.361Z,99.90
2018-09-19T03:39:38.026Z,99.90
2018-09-19T03:42:08.008Z,99.90
2018-09-19T03:44:38.108Z,99.90
2018-09-19T03:47:08.083Z,99.90
2018-09-19T03:49:37.827Z,99.90
2018-09-19T03:52:07.572Z,99.90
2018-09-19T03:54:37.318Z,99.90
2018-09-19T03:57:07.076Z,99.90
2018-09-19T03:59:36.901Z,99.90
2018-09-19T04:02:06.925Z,99.90
2018-09-19T04:04:36.630Z,99.90
2018-09-19T04:07:27.421Z,99.90
2018-09-19T04:09:57.116Z,99.90
2018-09-19T04:12:26.780Z,99.90
2018-09-19T04:14:56.419Z,99.90
2018-09-19T04:17:26.090Z,99.90
2018-09-19T04:19:56.059Z,99.90
2018-09-19T04:22:25.746Z,99.90
2018-09-19T04:24:55.397Z,99.90
2018-09-19T04:27:25.063Z,99.90
2018-09-19T04:29:54.744Z,99.90
2018-09-19T04:32:24.516Z,99.90
2018-09-19T04:34:54.245Z,99.90
2018-09-19T04:37:23.940Z,99.90
2018-09-19T04:39:53.578Z,99.90
2018-09-19T04:42:23.467Z,99.90
2018-09-19T04:44:53.150Z,99.90
2018-09-19T04:47:22.814Z,99.90
2018-09-19T04:49:52.428Z,99.90
2018-09-19T04:52:22.128Z,99.90
2018-09-19T04:54:57.475Z,99.90
2018-09-19T04:57:27.382Z,99.90
2018-09-19T04:59:57.034Z,99.90
2018-09-19T05:02:27.196Z,99.90
2018-09-19T05:04:56.909Z,99.90
2018-09-19T05:07:26.760Z,99.90
2018-09-19T05:09:56.471Z,99.90
2018-09-19T05:12:26.201Z,99.90
2018-09-19T05:14:55.844Z,99.90
2018-09-19T05:17:25.570Z,99.90
2018-09-19T05:19:55.240Z,99.90
2018-09-19T05:22:24.945Z,99.90
2018-09-19T05:24:54.623Z,99.90
2018-09-19T05:27:24.439Z,99.90
2018-09-19T05:29:54.153Z,99.90
2018-09-19T05:32:23.937Z,99.90
2018-09-19T05:34:54.046Z,99.90
2018-09-19T05:37:23.755Z,99.90
2018-09-19T05:39:53.376Z,99.90
2018-09-19T05:42:23.013Z,99.90
2018-09-19T05:44:52.753Z,99.90
2018-09-19T05:47:22.475Z,99.90
2018-09-19T05:49:52.111Z,99.90
2018-09-19T05:52:26.401Z,99.90
2018-09-19T05:54:58.382Z,99.90
2018-09-19T05:57:28.667Z,99.90
2018-09-19T05:59:58.418Z,99.90
2018-09-19T06:02:28.063Z,99.90
2018-09-19T06:04:57.894Z,99.90
2018-09-19T06:07:27.526Z,99.90
2018-09-19T06:09:57.214Z,99.90
2018-09-19T06:12:26.982Z,99.90
2018-09-19T06:14:56.803Z,99.90
2018-09-19T06:17:26.629Z,99.90
2018-09-19T06:19:56.306Z,99.90
2018-09-19T06:22:26.102Z,99.90
2018-09-19T06:24:55.811Z,99.90
2018-09-19T06:27:25.424Z,99.90
2018-09-19T06:29:55.154Z,99.90
2018-09-19T06:32:24.866Z,99.90
2018-09-19T06:34:54.447Z,99.90
2018-09-19T06:37:24.211Z,99.90
2018-09-19T06:39:53.972Z,99.90
2018-09-19T06:42:23.563Z,99.90
2018-09-19T06:44:54.171Z,99.90
2018-09-19T06:47:27.708Z,99.90
2018-09-19T06:49:57.350Z,99.90
2018-09-19T06:52:27.060Z,99.90
2018-09-19T06:54:56.626Z,99.90
2018-09-19T06:57:26.460Z,99.90
2018-09-19T07:00:20.671Z,99.90
2018-09-19T07:02:50.309Z,99.90
2018-09-19T07:05:20.108Z,99.90
2018-09-19T07:07:50.104Z,99.90
2018-09-19T07:10:19.791Z,99.90
2018-09-19T07:12:49.409Z,99.90
2018-09-19T07:15:19.043Z,99.90
2018-09-19T07:17:48.778Z,99.90
2018-09-19T07:20:18.667Z,99.90
2018-09-19T07:22:48.410Z,99.90
2018-09-19T07:25:18.133Z,99.90
2018-09-19T07:27:47.747Z,99.90
2018-09-19T07:30:17.371Z,99.90
2018-09-19T07:32:47.055Z,99.90
2018-09-19T07:35:16.761Z,99.90
2018-09-19T07:37:46.429Z,99.50
2018-09-19T07:40:16.167Z,97.60
2018-09-19T07:42:45.803Z,94.80
2018-09-19T07:45:15.568Z,96.00
2018-09-19T07:47:45.269Z,99.90
2018-09-19T07:50:14.986Z,99.90
2018-09-19T07:52:44.632Z,99.10
2018-09-19T07:55:14.319Z,98.20
2018-09-19T07:57:43.890Z,94.70
2018-09-19T08:00:13.591Z,90.80
2018-09-19T08:02:43.178Z,88.60
2018-09-19T08:05:12.821Z,84.50
2018-09-19T08:07:42.531Z,77.70
2018-09-19T08:10:12.317Z,75.00
2018-09-19T08:12:41.949Z,70.20
2018-09-19T08:15:11.618Z,69.40
2018-09-19T08:17:41.249Z,70.00
2018-09-19T08:20:11.317Z,71.30
2018-09-19T08:22:41.225Z,70.50
2018-09-19T08:25:10.956Z,67.10
2018-09-19T08:27:40.737Z,62.50
2018-09-19T08:30:10.468Z,59.50
2018-09-19T08:32:40.193Z,57.80
2018-09-19T08:35:09.843Z,57.10
2018-09-19T08:37:39.466Z,56.10
2018-09-19T08:40:09.179Z,55.20
2018-09-19T08:42:38.972Z,55.20
2018-09-19T08:45:08.688Z,54.70
2018-09-19T08:47:38.553Z,53.10
2018-09-19T08:50:08.287Z,53.10
2018-09-19T08:52:37.985Z,51.80
2018-09-19T08:55:07.751Z,53.40
2018-09-19T08:57:37.674Z,51.00
2018-09-19T09:00:08.679Z,50.90
2018-09-19T09:02:38.384Z,50.20
2018-09-19T09:05:08.674Z,47.60
2018-09-19T09:07:38.572Z,49.10
2018-09-19T09:10:08.327Z,48.80
2018-09-19T09:12:38.265Z,48.30
2018-09-19T09:15:08.347Z,47.60
2018-09-19T09:17:38.183Z,46.80
2018-09-19T09:20:08.103Z,44.70
2018-09-19T09:22:38.176Z,46.50
2018-09-19T09:25:07.831Z,47.40
2018-09-19T09:27:37.777Z,48.00
2018-09-19T09:30:07.581Z,47.90
2018-09-19T09:32:37.215Z,46.50
2018-09-19T09:35:07.017Z,46.00
2018-09-19T09:37:36.730Z,45.00
2018-09-19T09:40:06.611Z,45.00
2018-09-19T09:42:36.288Z,45.50
2018-09-19T09:45:06.383Z,45.50
2018-09-19T09:47:36.029Z,46.00
2018-09-19T09:50:06.079Z,47.50
2018-09-19T09:52:35.747Z,47.30
2018-09-19T09:55:05.798Z,45.70
2018-09-19T09:57:35.475Z,44.30
2018-09-19T10:00:05.515Z,43.70
2018-09-19T10:02:35.174Z,46.90
2018-09-19T10:05:04.988Z,46.50
2018-09-19T10:07:34.658Z,47.30
2018-09-19T10:10:04.302Z,47.10
2018-09-19T10:12:33.993Z,46.10
2018-09-19T10:15:03.628Z,45.20
2018-09-19T10:17:33.225Z,44.10
2018-09-19T10:20:03.134Z,43.30
2018-09-19T10:22:32.771Z,42.50
2018-09-19T10:25:02.454Z,42.50
2018-09-19T10:27:32.363Z,40.70
2018-09-19T10:30:02.102Z,41.40
2018-09-19T10:32:33.706Z,40.80
2018-09-19T10:35:03.359Z,41.40
2018-09-19T10:37:33.427Z,40.60
2018-09-19T10:40:03.083Z,40.70
2018-09-19T10:42:32.809Z,42.20
2018-09-19T10:45:02.368Z,43.30
2018-09-19T10:47:32.022Z,41.80
2018-09-19T10:50:01.719Z,42.90
2018-09-19T10:52:31.361Z,43.10
2018-09-19T10:55:01.071Z,42.30
2018-09-19T10:57:30.752Z,43.30
2018-09-19T11:00:00.791Z,42.60
2018-09-19T11:02:30.421Z,42.80
2018-09-19T11:05:00.083Z,40.10
2018-09-19T11:07:29.718Z,38.80
2018-09-19T11:09:59.384Z,39.80
2018-09-19T11:12:29.138Z,43.00
2018-09-19T11:14:58.961Z,42.20
2018-09-19T11:17:28.588Z,41.60
2018-09-19T11:19:58.355Z,41.90
2018-09-19T11:22:27.955Z,41.50
2018-09-19T11:24:57.763Z,44.00
2018-09-19T11:27:27.478Z,42.60
2018-09-19T11:29:57.145Z,44.30
2018-09-19T11:32:27.151Z,44.70
2018-09-19T11:34:56.785Z,47.10
2018-09-19T11:37:26.496Z,46.60
2018-09-19T11:39:56.138Z,46.80
2018-09-19T11:42:25.861Z,43.70
2018-09-19T11:44:55.701Z,44.10
2018-09-19T11:47:25.375Z,45.70
2018-09-19T11:49:55.154Z,42.10
2018-09-19T11:52:24.825Z,40.10
2018-09-19T11:54:54.471Z,39.00
2018-09-19T11:57:24.152Z,40.00
2018-09-19T11:59:53.917Z,41.20
2018-09-19T12:02:23.689Z,41.70
2018-09-19T12:04:53.418Z,43.40
2018-09-19T12:07:23.079Z,45.20
2018-09-19T12:09:52.690Z,44.80
2018-09-19T12:12:22.781Z,47.80
2018-09-19T12:14:52.523Z,48.60
2018-09-19T12:17:22.135Z,46.70
2018-09-19T12:19:51.982Z,46.00
2018-09-19T12:22:21.598Z,45.30
2018-09-19T12:24:51.338Z,43.10
2018-09-19T12:27:21.001Z,43.00
2018-09-19T12:29:50.646Z,41.80
2018-09-19T12:32:20.430Z,40.50
2018-09-19T12:34:50.110Z,38.50
2018-09-19T12:37:44.451Z,37.90
2018-09-19T12:40:14.181Z,37.60
2018-09-19T12:42:43.874Z,39.30
2018-09-19T12:45:13.642Z,41.40
2018-09-19T12:47:43.553Z,41.40
2018-09-19T12:50:13.945Z,38.90
2018-09-19T12:52:43.839Z,37.90
2018-09-19T12:55:13.614Z,38.20
2018-09-19T12:57:43.276Z,39.20
2018-09-19T13:00:13.018Z,36.80
2018-09-19T13:02:43.239Z,36.30
2018-09-19T13:05:12.863Z,35.00
2018-09-19T13:07:42.749Z,35.50
2018-09-19T13:10:12.932Z,36.40
2018-09-19T13:12:42.855Z,36.60
2018-09-19T13:15:25.207Z,36.10
2018-09-19T13:17:54.874Z,37.30
2018-09-19T13:20:24.646Z,37.10
2018-09-19T13:22:54.549Z,34.70
2018-09-19T13:25:26.328Z,34.50
2018-09-19T13:27:56.063Z,33.50
2018-09-19T13:30:25.827Z,32.40
2018-09-19T13:32:55.562Z,31.90
2018-09-19T13:35:25.288Z,33.70
2018-09-19T13:37:55.002Z,37.20
2018-09-19T13:40:24.653Z,37.60
2018-09-19T13:42:54.587Z,36.30
2018-09-19T13:45:24.175Z,36.80
2018-09-19T13:47:54.452Z,38.10
2018-09-19T13:50:59.178Z,38.60
2018-09-19T13:53:29.102Z,40.70
2018-09-19T13:55:59.577Z,39.50
2018-09-19T13:58:30.691Z,37.60
2018-09-19T14:01:00.409Z,36.50
2018-09-19T14:03:30.932Z,40.00
2018-09-19T14:06:00.606Z,39.80
2018-09-19T14:08:32.604Z,40.50
2018-09-19T14:11:02.550Z,41.80
2018-09-19T14:13:32.672Z,40.30
2018-09-19T14:16:04.611Z,38.50
2018-09-19T14:18:38.852Z,37.20
2018-09-19T14:21:08.606Z,38.00
2018-09-19T14:23:38.330Z,39.80
2018-09-19T14:26:08.067Z,39.50
2018-09-19T14:28:38.175Z,38.00
2018-09-19T14:31:08.174Z,39.30
2018-09-19T14:33:38.000Z,39.70
2018-09-19T14:36:07.859Z,39.30
2018-09-19T14:38:38.166Z,39.10
2018-09-19T14:41:07.988Z,38.00
2018-09-19T14:43:37.615Z,39.40
2018-09-19T14:46:07.807Z,40.70
2018-09-19T14:48:37.999Z,40.00
2018-09-19T14:51:08.607Z,39.00
2018-09-19T14:53:38.337Z,38.80
2018-09-19T14:56:08.252Z,36.90
2018-09-19T14:58:38.155Z,37.20
2018-09-19T15:01:07.837Z,36.70
2018-09-19T15:03:37.676Z,37.50
2018-09-19T15:06:07.731Z,36.90
2018-09-19T15:08:44.952Z,37.40
2018-09-19T15:11:14.719Z,37.90
2018-09-19T15:13:44.415Z,37.00
2018-09-19T15:16:14.146Z,35.60
2018-09-19T15:18:43.818Z,34.30
2018-09-19T15:21:13.413Z,33.50
2018-09-19T15:23:43.014Z,35.40
2018-09-19T15:26:12.742Z,35.10
2018-09-19T15:28:42.511Z,34.20
2018-09-19T15:31:12.249Z,32.40
2018-09-19T15:33:52.995Z,32.50
2018-09-19T15:36:22.787Z,32.40
2018-09-19T15:38:52.505Z,32.10
2018-09-19T15:41:22.283Z,32.40
2018-09-19T15:43:51.932Z,32.40
2018-09-19T15:46:21.588Z,32.00
2018-09-19T15:48:51.314Z,31.80
2018-09-19T15:51:21.013Z,32.10
2018-09-19T15:53:50.774Z,32.00
2018-09-19T15:56:20.462Z,32.10
2018-09-19T15:58:50.236Z,32.50
2018-09-19T16:01:20.328Z,33.30
2018-09-19T16:03:50.294Z,34.50
2018-09-19T16:06:20.171Z,35.20
2018-09-19T16:08:52.043Z,35.70
2018-09-19T16:11:21.647Z,36.30
2018-09-19T16:13:56.559Z,37.10
2018-09-19T16:16:26.402Z,38.50
2018-09-19T16:19:04.343Z,38.20
2018-09-19T16:21:34.023Z,39.00
2018-09-19T16:24:08.618Z,39.70
2018-09-19T16:26:38.266Z,40.70
2018-09-19T16:29:08.234Z,41.30
2018-09-19T16:31:48.405Z,41.60
2018-09-19T16:34:18.253Z,42.10
2018-09-19T16:36:48.710Z,42.90
2018-09-19T16:39:24.571Z,43.50
2018-09-19T16:42:00.027Z,43.90
2018-09-19T16:44:30.349Z,44.40
2018-09-19T16:47:00.050Z,45.50
2018-09-19T16:49:29.747Z,46.90
2018-09-19T16:51:59.534Z,47.60
2018-09-19T16:54:30.347Z,48.10
2018-09-19T16:57:00.251Z,49.40
2018-09-19T16:59:29.983Z,52.20
2018-09-19T17:01:59.850Z,53.90
2018-09-19T17:04:36.483Z,55.60
2018-09-19T17:07:06.915Z,56.50
2018-09-19T17:09:36.882Z,57.50
2018-09-19T17:12:06.925Z,59.10
2018-09-19T17:14:39.039Z,60.60
2018-09-19T17:17:08.957Z,63.20
2018-09-19T17:19:39.148Z,65.10
2018-09-19T17:22:08.983Z,67.80
2018-09-19T17:24:42.896Z,69.20
2018-09-19T17:27:12.822Z,71.80
2018-09-19T17:29:42.364Z,73.40
2018-09-19T17:32:12.129Z,77.60
2018-09-19T17:34:41.703Z,81.40
2018-09-19T17:37:11.058Z,85.60
2018-09-19T17:39:40.650Z,91.60
2018-09-19T17:42:10.641Z,95.40
2018-09-19T17:44:40.108Z,98.30
2018-09-19T17:47:09.556Z,99.90
2018-09-19T17:49:39.079Z,99.90
2018-09-19T17:52:08.474Z,99.90
2018-09-19T17:54:38.270Z,99.90
2018-09-19T17:57:08.069Z,99.90
2018-09-19T17:59:38.110Z,99.90
2018-09-19T18:02:08.362Z,99.90
2018-09-19T18:04:38.190Z,99.90
2018-09-19T18:07:08.117Z,99.90
2018-09-19T18:09:44.633Z,99.90
2018-09-19T18:12:16.245Z,99.90
2018-09-19T18:14:47.386Z,99.90
2018-09-19T18:17:21.021Z,99.90
2018-09-19T18:19:57.691Z,99.90
2018-09-19T18:22:38.666Z,99.90
2018-09-19T18:25:09.254Z,99.90
2018-09-19T18:27:39.360Z,99.90
2018-09-19T18:30:15.267Z,99.90
2018-09-19T18:32:45.572Z,99.90
2018-09-19T18:35:18.368Z,99.90
2018-09-19T18:37:48.248Z,99.90
2018-09-19T18:40:19.987Z,99.90
2018-09-19T18:42:49.829Z,99.90
2018-09-19T18:45:25.052Z,99.90
2018-09-19T18:47:55.091Z,99.90
2018-09-19T18:50:25.361Z,99.90
2018-09-19T18:53:01.952Z,99.90
2018-09-19T18:55:31.690Z,99.90
2018-09-19T18:58:01.352Z,99.90
2018-09-19T19:00:38.160Z,99.90
2018-09-19T19:03:08.459Z,99.90
2018-09-19T19:05:38.443Z,99.90
2018-09-19T19:08:08.807Z,99.90
2018-09-19T19:11:03.094Z,99.90
2018-09-19T19:13:32.487Z,99.90
2018-09-19T19:16:01.917Z,99.90
2018-09-19T19:18:31.808Z,99.90
2018-09-19T19:21:01.233Z,99.90
2018-09-19T19:23:30.680Z,99.90
2018-09-19T19:26:00.088Z,99.90
2018-09-19T19:28:29.441Z,99.90
2018-09-19T19:31:15.133Z,99.90
2018-09-19T19:33:44.593Z,99.90
2018-09-19T19:36:14.547Z,99.90
2018-09-19T19:38:44.183Z,99.90
2018-09-19T19:41:15.856Z,99.90
2018-09-19T19:43:45.313Z,99.90
2018-09-19T19:46:14.650Z,99.90
2018-09-19T19:48:44.461Z,99.90
2018-09-19T19:51:14.113Z,99.90
2018-09-19T19:53:47.527Z,99.90
2018-09-19T19:56:21.377Z,99.90
2018-09-19T19:58:50.721Z,99.90
2018-09-19T20:01:20.523Z,99.90
2018-09-19T20:03:51.356Z,99.90
2018-09-19T20:06:20.842Z,99.90
2018-09-19T20:08:50.206Z,99.90
2018-09-19T20:11:19.771Z,99.90
2018-09-19T20:13:49.143Z,99.90
2018-09-19T20:16:19.643Z,99.90
2018-09-19T20:18:49.873Z,99.90
2018-09-19T20:21:19.306Z,99.90
2018-09-19T20:23:48.638Z,99.90
2018-09-19T20:26:18.048Z,99.90
2018-09-19T20:28:47.481Z,99.90
2018-09-19T20:31:16.783Z,99.90
2018-09-19T20:33:46.138Z,99.90
2018-09-19T20:36:18.981Z,99.90
2018-09-19T20:38:48.541Z,99.90
2018-09-19T20:41:18.092Z,99.90
2018-09-19T20:43:49.561Z,99.90
2018-09-19T20:46:18.888Z,99.90
2018-09-19T20:48:49.390Z,99.90
2018-09-19T20:51:18.885Z,99.90
2018-09-19T20:53:48.647Z,99.90
2018-09-19T20:56:18.394Z,99.90
2018-09-19T20:58:48.205Z,99.90
2018-09-19T21:01:28.347Z,99.90
2018-09-19T21:03:58.289Z,99.90
2018-09-19T21:06:28.071Z,99.90
2018-09-19T21:08:57.853Z,99.90
2018-09-19T21:11:27.515Z,99.90
2018-09-19T21:13:57.119Z,99.90
2018-09-19T21:16:26.805Z,99.90
2018-09-19T21:18:56.523Z,99.90
2018-09-19T21:21:26.278Z,99.90
2018-09-19T21:24:16.063Z,99.90
2018-09-19T21:26:45.841Z,99.90
2018-09-19T21:32:16.681Z,99.90
2018-09-19T21:34:46.431Z,99.90
2018-09-19T21:37:16.126Z,99.90
2018-09-19T21:39:50.281Z,99.90
2018-09-19T21:42:20.152Z,99.90
2018-09-19T21:44:49.950Z,99.90
2018-09-19T21:47:19.595Z,99.90
2018-09-19T21:49:49.339Z,99.90
2018-09-19T21:52:20.079Z,99.90
2018-09-19T21:54:49.922Z,99.90
2018-09-19T21:57:19.567Z,99.90
2018-09-19T21:59:49.326Z,99.90
2018-09-19T22:02:19.269Z,99.90
2018-09-19T22:04:49.234Z,99.90
2018-09-19T22:07:18.873Z,99.90
2018-09-19T22:09:48.566Z,99.90
2018-09-19T22:12:18.295Z,99.90
2018-09-19T22:14:48.065Z,99.90
2018-09-19T22:17:17.812Z,99.90
2018-09-19T22:19:47.498Z,99.90
2018-09-19T22:22:17.203Z,99.90
2018-09-19T22:24:47.006Z,99.90
2018-09-19T22:27:16.723Z,99.90
2018-09-19T22:30:07.089Z,99.90
2018-09-19T22:32:36.713Z,99.90
2018-09-19T22:35:06.707Z,99.90
2018-09-19T22:37:36.456Z,99.90
2018-09-19T22:40:06.434Z,99.90
2018-09-19T22:42:36.186Z,99.90
2018-09-19T22:45:06.012Z,99.90
2018-09-19T22:47:35.672Z,99.90
2018-09-19T22:50:05.544Z,99.90
2018-09-19T22:52:35.235Z,99.90
2018-09-19T22:55:05.246Z,99.90
2018-09-19T22:57:35.017Z,99.90
2018-09-19T23:00:05.244Z,99.90
2018-09-19T23:02:35.086Z,99.90
2018-09-19T23:08:05.348Z,99.90
2018-09-19T23:10:35.091Z,99.90
2018-09-19T23:13:04.933Z,99.90
2018-09-19T23:15:40.503Z,99.90
2018-09-19T23:18:10.279Z,99.90
2018-09-19T23:20:39.998Z,99.90
2018-09-19T23:23:10.081Z,99.90
2018-09-19T23:25:39.975Z,99.90
2018-09-19T23:28:09.692Z,99.90
2018-09-19T23:30:39.475Z,99.90
2018-09-19T23:33:09.457Z,99.90
2018-09-19T23:35:42.850Z,99.90
2018-09-19T23:38:12.584Z,99.90
2018-09-19T23:40:42.342Z,99.90
2018-09-19T23:43:12.174Z,99.90
2018-09-19T23:45:41.904Z,99.90
2018-09-19T23:48:11.675Z,99.90
2018-09-19T23:50:41.388Z,99.90
2018-09-19T23:53:11.159Z,99.90
2018-09-19T23:55:40.875Z,99.90
2018-09-19T23:58:11.129Z,99.90
